sensor_id;sensor_type;location;lat;lon;timestamp;P1;durP1;ratioP1;P2;durP2;ratioP2
39896;SDS011;25567;48.276;14.242;2022-08-03T00:00:41;11.15;;;4.15;;
39896;SDS011;25567;48.276;14.242;2022-08-03T00:03:21;13.07;;;5.53;;
39896;SDS011;25567;48.276;14.242;2022-08-03T00:06:08;15.48;;;5.05;;
39896;SDS011;25567;48.276;14.242;2022-08-03T00:08:48;20.70;;;5.70;;
39896;SDS011;25567;48.276;14.242;2022-08-03T00:11:38;18.20;;;6.15;;
39896;SDS011;25567;48.276;14.242;2022-08-03T00:14:18;22.30;;;6.30;;
39896;SDS011;25567;48.276;14.242;2022-08-03T00:17:05;11.25;;;5.18;;
39896;SDS011;25567;48.276;14.242;2022-08-03T00:19:45;15.65;;;6.22;;
39896;SDS011;25567;48.276;14.242;2022-08-03T00:22:33;14.77;;;5.00;;
39896;SDS011;25567;48.276;14.242;2022-08-03T00:25:14;14.68;;;4.88;;
39896;SDS011;25567;48.276;14.242;2022-08-03T00:28:08;13.40;;;5.60;;
39896;SDS011;25567;48.276;14.242;2022-08-03T00:30:41;13.40;;;5.60;;
39896;SDS011;25567;48.276;14.242;2022-08-03T00:33:35;19.35;;;5.90;;
39896;SDS011;25567;48.276;14.242;2022-08-03T00:36:28;14.07;;;5.75;;
39896;SDS011;25567;48.276;14.242;2022-08-03T00:39:22;13.40;;;5.80;;
39896;SDS011;25567;48.276;14.242;2022-08-03T00:42:16;16.60;;;6.47;;
39896;SDS011;25567;48.276;14.242;2022-08-03T00:44:49;15.20;;;6.35;;
39896;SDS011;25567;48.276;14.242;2022-08-03T00:47:43;20.25;;;6.70;;
39896;SDS011;25567;48.276;14.242;2022-08-03T00:50:24;15.93;;;6.25;;
39896;SDS011;25567;48.276;14.242;2022-08-03T00:53:20;13.02;;;6.65;;
39896;SDS011;25567;48.276;14.242;2022-08-03T00:55:53;16.15;;;6.38;;
39896;SDS011;25567;48.276;14.242;2022-08-03T00:58:47;11.45;;;5.55;;
39896;SDS011;25567;48.276;14.242;2022-08-03T01:01:28;12.63;;;5.60;;
39896;SDS011;25567;48.276;14.242;2022-08-03T01:04:22;13.85;;;5.90;;
39896;SDS011;25567;48.276;14.242;2022-08-03T01:16:47;13.20;;;5.53;;
39896;SDS011;25567;48.276;14.242;2022-08-03T01:25:27;15.65;;;5.25;;
39896;SDS011;25567;48.276;14.242;2022-08-03T01:28:38;12.60;;;5.20;;
39896;SDS011;25567;48.276;14.242;2022-08-03T01:31:39;12.10;;;5.05;;
39896;SDS011;25567;48.276;14.242;2022-08-03T01:34:50;11.38;;;5.53;;
39896;SDS011;25567;48.276;14.242;2022-08-03T01:37:38;9.27;;;4.45;;
39896;SDS011;25567;48.276;14.242;2022-08-03T01:40:36;12.73;;;4.72;;
39896;SDS011;25567;48.276;14.242;2022-08-03T01:43:14;16.85;;;5.43;;
39896;SDS011;25567;48.276;14.242;2022-08-03T01:46:30;11.10;;;4.75;;
39896;SDS011;25567;48.276;14.242;2022-08-03T01:49:11;12.18;;;4.80;;
39896;SDS011;25567;48.276;14.242;2022-08-03T01:52:00;12.80;;;4.57;;
39896;SDS011;25567;48.276;14.242;2022-08-03T01:54:43;16.38;;;4.68;;
39896;SDS011;25567;48.276;14.242;2022-08-03T01:57:31;9.80;;;4.40;;
39896;SDS011;25567;48.276;14.242;2022-08-03T02:00:34;9.27;;;4.07;;
39896;SDS011;25567;48.276;14.242;2022-08-03T02:03:29;10.50;;;4.45;;
39896;SDS011;25567;48.276;14.242;2022-08-03T02:06:05;12.93;;;5.03;;
39896;SDS011;25567;48.276;14.242;2022-08-03T02:09:22;11.65;;;4.88;;
39896;SDS011;25567;48.276;14.242;2022-08-03T02:11:56;18.20;;;5.05;;
39896;SDS011;25567;48.276;14.242;2022-08-03T02:14:51;15.63;;;5.07;;
39896;SDS011;25567;48.276;14.242;2022-08-03T02:17:32;15.77;;;5.43;;
39896;SDS011;25567;48.276;14.242;2022-08-03T02:20:28;12.40;;;4.78;;
39896;SDS011;25567;48.276;14.242;2022-08-03T02:23:13;13.80;;;5.40;;
39896;SDS011;25567;48.276;14.242;2022-08-03T02:26:08;16.00;;;6.03;;
39896;SDS011;25567;48.276;14.242;2022-08-03T02:28:46;10.52;;;4.93;;
39896;SDS011;25567;48.276;14.242;2022-08-03T02:31:44;10.85;;;4.80;;
39896;SDS011;25567;48.276;14.242;2022-08-03T02:34:27;11.40;;;5.35;;
39896;SDS011;25567;48.276;14.242;2022-08-03T02:37:23;12.63;;;5.10;;
39896;SDS011;25567;48.276;14.242;2022-08-03T02:40:12;9.75;;;5.13;;
39896;SDS011;25567;48.276;14.242;2022-08-03T02:43:08;10.38;;;5.32;;
39896;SDS011;25567;48.276;14.242;2022-08-03T02:45:44;10.80;;;4.57;;
39896;SDS011;25567;48.276;14.242;2022-08-03T02:48:40;10.55;;;4.55;;
39896;SDS011;25567;48.276;14.242;2022-08-03T02:51:17;9.60;;;5.03;;
39896;SDS011;25567;48.276;14.242;2022-08-03T02:54:13;12.80;;;5.18;;
39896;SDS011;25567;48.276;14.242;2022-08-03T02:56:49;10.48;;;5.00;;
39896;SDS011;25567;48.276;14.242;2022-08-03T02:59:44;12.05;;;4.50;;
39896;SDS011;25567;48.276;14.242;2022-08-03T03:02:18;11.60;;;5.05;;
39896;SDS011;25567;48.276;14.242;2022-08-03T03:05:12;11.45;;;4.57;;
39896;SDS011;25567;48.276;14.242;2022-08-03T03:08:07;12.85;;;4.43;;
39896;SDS011;25567;48.276;14.242;2022-08-03T03:11:07;16.77;;;4.57;;
39896;SDS011;25567;48.276;14.242;2022-08-03T03:13:42;12.02;;;4.50;;
39896;SDS011;25567;48.276;14.242;2022-08-03T03:16:39;9.73;;;3.83;;
39896;SDS011;25567;48.276;14.242;2022-08-03T03:19:13;12.68;;;4.28;;
39896;SDS011;25567;48.276;14.242;2022-08-03T03:22:09;11.07;;;4.32;;
39896;SDS011;25567;48.276;14.242;2022-08-03T03:24:43;10.88;;;4.10;;
39896;SDS011;25567;48.276;14.242;2022-08-03T03:27:24;11.23;;;4.00;;
39896;SDS011;25567;48.276;14.242;2022-08-03T03:30:11;9.85;;;4.45;;
39896;SDS011;25567;48.276;14.242;2022-08-03T03:32:51;8.63;;;4.38;;
39896;SDS011;25567;48.276;14.242;2022-08-03T03:35:46;9.25;;;4.18;;
39896;SDS011;25567;48.276;14.242;2022-08-03T03:38:20;11.48;;;4.25;;
39896;SDS011;25567;48.276;14.242;2022-08-03T03:41:14;9.25;;;4.10;;
39896;SDS011;25567;48.276;14.242;2022-08-03T03:43:48;10.82;;;4.50;;
39896;SDS011;25567;48.276;14.242;2022-08-03T03:46:42;13.05;;;4.20;;
39896;SDS011;25567;48.276;14.242;2022-08-03T03:49:15;8.73;;;4.60;;
39896;SDS011;25567;48.276;14.242;2022-08-03T03:52:09;8.80;;;4.30;;
39896;SDS011;25567;48.276;14.242;2022-08-03T03:54:43;13.20;;;4.60;;
39896;SDS011;25567;48.276;14.242;2022-08-03T03:57:40;13.07;;;5.13;;
39896;SDS011;25567;48.276;14.242;2022-08-03T04:00:14;7.28;;;4.20;;
39896;SDS011;25567;48.276;14.242;2022-08-03T04:03:09;13.48;;;4.32;;
39896;SDS011;25567;48.276;14.242;2022-08-03T04:05:43;16.35;;;5.90;;
39896;SDS011;25567;48.276;14.242;2022-08-03T04:08:52;15.80;;;6.70;;
39896;SDS011;25567;48.276;14.242;2022-08-03T04:11:49;16.30;;;6.45;;
39896;SDS011;25567;48.276;14.242;2022-08-03T04:14:37;24.00;;;7.65;;
39896;SDS011;25567;48.276;14.242;2022-08-03T04:17:18;21.85;;;7.72;;
39896;SDS011;25567;48.276;14.242;2022-08-03T04:20:07;24.75;;;8.40;;
39896;SDS011;25567;48.276;14.242;2022-08-03T04:22:49;21.88;;;8.20;;
39896;SDS011;25567;48.276;14.242;2022-08-03T04:25:54;23.00;;;9.05;;
39896;SDS011;25567;48.276;14.242;2022-08-03T04:28:29;24.33;;;9.32;;
39896;SDS011;25567;48.276;14.242;2022-08-03T04:31:24;21.52;;;9.05;;
39896;SDS011;25567;48.276;14.242;2022-08-03T04:34:05;27.75;;;9.85;;
39896;SDS011;25567;48.276;14.242;2022-08-03T04:36:55;16.27;;;8.63;;
39896;SDS011;25567;48.276;14.242;2022-08-03T04:39:40;24.80;;;9.77;;
39896;SDS011;25567;48.276;14.242;2022-08-03T04:42:36;19.83;;;9.15;;
39896;SDS011;25567;48.276;14.242;2022-08-03T04:45:17;19.02;;;8.90;;
39896;SDS011;25567;48.276;14.242;2022-08-03T04:48:13;21.65;;;8.57;;
39896;SDS011;25567;48.276;14.242;2022-08-03T04:50:53;19.10;;;9.27;;
39896;SDS011;25567;48.276;14.242;2022-08-03T04:53:42;16.88;;;8.70;;
39896;SDS011;25567;48.276;14.242;2022-08-03T04:56:22;19.20;;;8.63;;
39896;SDS011;25567;48.276;14.242;2022-08-03T04:59:09;17.00;;;8.38;;
39896;SDS011;25567;48.276;14.242;2022-08-03T05:01:50;21.48;;;7.80;;
39896;SDS011;25567;48.276;14.242;2022-08-03T05:04:37;16.92;;;8.05;;
39896;SDS011;25567;48.276;14.242;2022-08-03T05:07:19;17.65;;;8.35;;
39896;SDS011;25567;48.276;14.242;2022-08-03T05:10:14;21.13;;;9.30;;
39896;SDS011;25567;48.276;14.242;2022-08-03T05:12:55;16.67;;;8.80;;
39896;SDS011;25567;48.276;14.242;2022-08-03T05:15:49;18.85;;;8.82;;
39896;SDS011;25567;48.276;14.242;2022-08-03T05:18:29;18.02;;;7.78;;
39896;SDS011;25567;48.276;14.242;2022-08-03T05:21:16;16.83;;;7.45;;
39896;SDS011;25567;48.276;14.242;2022-08-03T05:24:13;18.42;;;8.02;;
39896;SDS011;25567;48.276;14.242;2022-08-03T05:27:07;24.20;;;8.52;;
39896;SDS011;25567;48.276;14.242;2022-08-03T05:29:40;16.25;;;8.82;;
39896;SDS011;25567;48.276;14.242;2022-08-03T05:32:34;16.50;;;8.10;;
39896;SDS011;25567;48.276;14.242;2022-08-03T05:35:07;10.48;;;7.20;;
39896;SDS011;25567;48.276;14.242;2022-08-03T05:38:21;9.68;;;6.47;;
39896;SDS011;25567;48.276;14.242;2022-08-03T05:41:15;10.02;;;5.68;;
39896;SDS011;25567;48.276;14.242;2022-08-03T05:44:09;10.98;;;6.15;;
39896;SDS011;25567;48.276;14.242;2022-08-03T05:47:04;17.35;;;9.45;;
39896;SDS011;25567;48.276;14.242;2022-08-03T05:49:37;17.92;;;8.00;;
39896;SDS011;25567;48.276;14.242;2022-08-03T05:52:31;14.32;;;7.03;;
39896;SDS011;25567;48.276;14.242;2022-08-03T05:55:06;15.32;;;8.10;;
39896;SDS011;25567;48.276;14.242;2022-08-03T05:58:00;15.00;;;7.85;;
39896;SDS011;25567;48.276;14.242;2022-08-03T06:00:35;15.27;;;7.85;;
39896;SDS011;25567;48.276;14.242;2022-08-03T06:03:29;10.13;;;7.13;;
39896;SDS011;25567;48.276;14.242;2022-08-03T06:06:02;16.75;;;7.82;;
39896;SDS011;25567;48.276;14.242;2022-08-03T06:08:56;15.43;;;7.97;;
39896;SDS011;25567;48.276;14.242;2022-08-03T06:11:36;19.90;;;7.45;;
39896;SDS011;25567;48.276;14.242;2022-08-03T06:14:30;18.80;;;8.32;;
39896;SDS011;25567;48.276;14.242;2022-08-03T06:17:03;20.08;;;7.47;;
39896;SDS011;25567;48.276;14.242;2022-08-03T06:19:57;14.57;;;7.10;;
39896;SDS011;25567;48.276;14.242;2022-08-03T06:22:37;11.70;;;6.30;;
39896;SDS011;25567;48.276;14.242;2022-08-03T06:25:39;14.15;;;7.40;;
39896;SDS011;25567;48.276;14.242;2022-08-03T06:28:19;12.90;;;7.07;;
39896;SDS011;25567;48.276;14.242;2022-08-03T06:31:20;13.68;;;6.35;;
39896;SDS011;25567;48.276;14.242;2022-08-03T06:34:15;9.07;;;5.43;;
39896;SDS011;25567;48.276;14.242;2022-08-03T06:37:06;8.30;;;4.90;;
39896;SDS011;25567;48.276;14.242;2022-08-03T06:40:00;8.65;;;4.70;;
39896;SDS011;25567;48.276;14.242;2022-08-03T06:42:45;15.48;;;5.63;;
39896;SDS011;25567;48.276;14.242;2022-08-03T06:45:32;10.65;;;4.82;;
39896;SDS011;25567;48.276;14.242;2022-08-03T06:48:12;13.82;;;4.93;;
39896;SDS011;25567;48.276;14.242;2022-08-03T06:50:59;13.93;;;4.93;;
39896;SDS011;25567;48.276;14.242;2022-08-03T06:53:39;12.20;;;4.70;;
39896;SDS011;25567;48.276;14.242;2022-08-03T06:56:26;11.18;;;5.60;;
39896;SDS011;25567;48.276;14.242;2022-08-03T06:59:06;12.13;;;6.05;;
39896;SDS011;25567;48.276;14.242;2022-08-03T07:02:13;8.10;;;5.63;;
39896;SDS011;25567;48.276;14.242;2022-08-03T07:04:53;10.55;;;5.57;;
39896;SDS011;25567;48.276;14.242;2022-08-03T07:07:48;12.52;;;5.50;;
39896;SDS011;25567;48.276;14.242;2022-08-03T07:10:21;13.57;;;5.22;;
39896;SDS011;25567;48.276;14.242;2022-08-03T07:13:15;14.63;;;5.60;;
39896;SDS011;25567;48.276;14.242;2022-08-03T07:15:55;16.73;;;5.68;;
39896;SDS011;25567;48.276;14.242;2022-08-03T07:18:42;14.73;;;6.20;;
39896;SDS011;25567;48.276;14.242;2022-08-03T07:21:22;10.18;;;5.50;;
39896;SDS011;25567;48.276;14.242;2022-08-03T07:24:16;10.30;;;5.70;;
39896;SDS011;25567;48.276;14.242;2022-08-03T07:26:49;15.90;;;5.57;;
39896;SDS011;25567;48.276;14.242;2022-08-03T07:29:43;12.90;;;5.35;;
39896;SDS011;25567;48.276;14.242;2022-08-03T07:32:16;16.27;;;6.00;;
39896;SDS011;25567;48.276;14.242;2022-08-03T07:35:10;17.98;;;5.78;;
39896;SDS011;25567;48.276;14.242;2022-08-03T07:37:56;11.90;;;4.93;;
39896;SDS011;25567;48.276;14.242;2022-08-03T07:40:50;11.13;;;5.03;;
39896;SDS011;25567;48.276;14.242;2022-08-03T07:43:30;12.55;;;5.95;;
39896;SDS011;25567;48.276;14.242;2022-08-03T07:46:17;12.93;;;5.88;;
39896;SDS011;25567;48.276;14.242;2022-08-03T07:48:58;14.65;;;5.40;;
39896;SDS011;25567;48.276;14.242;2022-08-03T07:51:45;19.73;;;6.05;;
39896;SDS011;25567;48.276;14.242;2022-08-03T07:54:45;19.02;;;7.05;;
39896;SDS011;25567;48.276;14.242;2022-08-03T07:57:32;20.13;;;6.85;;
39896;SDS011;25567;48.276;14.242;2022-08-03T08:00:16;12.90;;;5.88;;
39896;SDS011;25567;48.276;14.242;2022-08-03T08:03:04;10.20;;;5.60;;
39896;SDS011;25567;48.276;14.242;2022-08-03T08:05:44;17.85;;;5.85;;
39896;SDS011;25567;48.276;14.242;2022-08-03T08:08:32;8.43;;;5.35;;
39896;SDS011;25567;48.276;14.242;2022-08-03T08:11:12;15.98;;;5.60;;
39896;SDS011;25567;48.276;14.242;2022-08-03T08:14:10;20.13;;;5.75;;
39896;SDS011;25567;48.276;14.242;2022-08-03T08:16:44;13.45;;;5.25;;
39896;SDS011;25567;48.276;14.242;2022-08-03T08:19:42;8.25;;;4.72;;
39896;SDS011;25567;48.276;14.242;2022-08-03T08:22:24;10.82;;;5.13;;
39896;SDS011;25567;48.276;14.242;2022-08-03T08:25:18;14.95;;;5.30;;
39896;SDS011;25567;48.276;14.242;2022-08-03T08:27:58;19.60;;;5.80;;
39896;SDS011;25567;48.276;14.242;2022-08-03T08:31:11;16.33;;;7.13;;
39896;SDS011;25567;48.276;14.242;2022-08-03T08:33:44;15.80;;;5.40;;
39896;SDS011;25567;48.276;14.242;2022-08-03T08:36:43;16.45;;;5.88;;
39896;SDS011;25567;48.276;14.242;2022-08-03T08:39:17;14.35;;;6.50;;
39896;SDS011;25567;48.276;14.242;2022-08-03T08:42:11;17.67;;;6.75;;
39896;SDS011;25567;48.276;14.242;2022-08-03T08:44:44;9.43;;;4.07;;
39896;SDS011;25567;48.276;14.242;2022-08-03T08:47:39;6.90;;;3.58;;
39896;SDS011;25567;48.276;14.242;2022-08-03T08:50:23;5.63;;;3.20;;
39896;SDS011;25567;48.276;14.242;2022-08-03T08:53:17;9.80;;;3.83;;
39896;SDS011;25567;48.276;14.242;2022-08-03T08:55:59;5.53;;;3.00;;
39896;SDS011;25567;48.276;14.242;2022-08-03T08:58:56;3.17;;;2.35;;
39896;SDS011;25567;48.276;14.242;2022-08-03T09:01:30;3.28;;;2.70;;
39896;SDS011;25567;48.276;14.242;2022-08-03T09:04:24;3.33;;;2.33;;
39896;SDS011;25567;48.276;14.242;2022-08-03T09:07:06;6.90;;;2.90;;
39896;SDS011;25567;48.276;14.242;2022-08-03T09:10:00;7.93;;;2.70;;
39896;SDS011;25567;48.276;14.242;2022-08-03T09:12:45;5.47;;;2.55;;
39896;SDS011;25567;48.276;14.242;2022-08-03T09:15:33;3.33;;;2.10;;
39896;SDS011;25567;48.276;14.242;2022-08-03T09:18:31;5.57;;;2.60;;
39896;SDS011;25567;48.276;14.242;2022-08-03T09:21:27;3.17;;;2.10;;
39896;SDS011;25567;48.276;14.242;2022-08-03T09:24:08;8.35;;;2.35;;
39896;SDS011;25567;48.276;14.242;2022-08-03T09:27:20;5.18;;;2.30;;
39896;SDS011;25567;48.276;14.242;2022-08-03T09:30:00;3.58;;;2.50;;
39896;SDS011;25567;48.276;14.242;2022-08-03T09:33:13;7.15;;;2.38;;
39896;SDS011;25567;48.276;14.242;2022-08-03T09:35:48;4.45;;;2.60;;
39896;SDS011;25567;48.276;14.242;2022-08-03T09:38:42;5.13;;;2.65;;
39896;SDS011;25567;48.276;14.242;2022-08-03T09:41:42;2.85;;;2.22;;
39896;SDS011;25567;48.276;14.242;2022-08-03T09:44:34;9.68;;;4.63;;
39896;SDS011;25567;48.276;14.242;2022-08-03T09:47:26;6.05;;;3.22;;
39896;SDS011;25567;48.276;14.242;2022-08-03T09:50:23;4.20;;;2.20;;
39896;SDS011;25567;48.276;14.242;2022-08-03T09:53:03;7.60;;;2.42;;
39896;SDS011;25567;48.276;14.242;2022-08-03T09:55:58;5.95;;;2.17;;
39896;SDS011;25567;48.276;14.242;2022-08-03T09:58:59;3.42;;;2.25;;
39896;SDS011;25567;48.276;14.242;2022-08-03T10:01:46;5.32;;;1.98;;
39896;SDS011;25567;48.276;14.242;2022-08-03T10:04:26;2.85;;;2.00;;
39896;SDS011;25567;48.276;14.242;2022-08-03T10:07:21;3.75;;;2.13;;
39896;SDS011;25567;48.276;14.242;2022-08-03T10:09:57;4.55;;;2.15;;
39896;SDS011;25567;48.276;14.242;2022-08-03T10:13:11;2.10;;;1.83;;
39896;SDS011;25567;48.276;14.242;2022-08-03T10:15:45;2.83;;;1.90;;
39896;SDS011;25567;48.276;14.242;2022-08-03T10:19:00;3.03;;;2.10;;
39896;SDS011;25567;48.276;14.242;2022-08-03T10:21:41;8.65;;;3.20;;
39896;SDS011;25567;48.276;14.242;2022-08-03T10:24:36;4.13;;;2.55;;
39896;SDS011;25567;48.276;14.242;2022-08-03T10:27:19;3.88;;;2.15;;
39896;SDS011;25567;48.276;14.242;2022-08-03T10:30:14;2.80;;;1.70;;
39896;SDS011;25567;48.276;14.242;2022-08-03T10:33:01;1.95;;;1.67;;
39896;SDS011;25567;48.276;14.242;2022-08-03T10:36:17;2.75;;;1.98;;
39896;SDS011;25567;48.276;14.242;2022-08-03T10:38:54;3.00;;;1.73;;
39896;SDS011;25567;48.276;14.242;2022-08-03T10:41:54;3.85;;;1.83;;
39896;SDS011;25567;48.276;14.242;2022-08-03T10:44:32;4.65;;;1.75;;
39896;SDS011;25567;48.276;14.242;2022-08-03T10:47:32;3.78;;;2.00;;
39896;SDS011;25567;48.276;14.242;2022-08-03T10:50:06;5.88;;;2.88;;
39896;SDS011;25567;48.276;14.242;2022-08-03T10:53:02;2.80;;;1.90;;
39896;SDS011;25567;48.276;14.242;2022-08-03T10:55:41;3.08;;;2.10;;
39896;SDS011;25567;48.276;14.242;2022-08-03T10:58:55;2.72;;;1.50;;
39896;SDS011;25567;48.276;14.242;2022-08-03T11:04:43;4.30;;;1.55;;
39896;SDS011;25567;48.276;14.242;2022-08-03T11:07:17;1.63;;;1.52;;
39896;SDS011;25567;48.276;14.242;2022-08-03T11:10:28;1.75;;;1.50;;
39896;SDS011;25567;48.276;14.242;2022-08-03T11:13:05;2.63;;;1.85;;
39896;SDS011;25567;48.276;14.242;2022-08-03T11:15:50;2.83;;;1.67;;
39896;SDS011;25567;48.276;14.242;2022-08-03T11:18:54;2.92;;;1.92;;
39896;SDS011;25567;48.276;14.242;2022-08-03T11:27:20;2.42;;;1.50;;
39896;SDS011;25567;48.276;14.242;2022-08-03T11:32:59;2.05;;;1.33;;
39896;SDS011;25567;48.276;14.242;2022-08-03T11:35:57;3.47;;;1.60;;
39896;SDS011;25567;48.276;14.242;2022-08-03T11:39:10;2.15;;;1.38;;
39896;SDS011;25567;48.276;14.242;2022-08-03T11:44:57;2.58;;;1.45;;
39896;SDS011;25567;48.276;14.242;2022-08-03T11:47:53;2.22;;;1.42;;
39896;SDS011;25567;48.276;14.242;2022-08-03T11:50:35;1.40;;;1.08;;
39896;SDS011;25567;48.276;14.242;2022-08-03T11:53:23;2.08;;;1.13;;
39896;SDS011;25567;48.276;14.242;2022-08-03T11:56:03;1.98;;;1.60;;
39896;SDS011;25567;48.276;14.242;2022-08-03T11:58:53;2.17;;;1.70;;
39896;SDS011;25567;48.276;14.242;2022-08-03T12:02:04;2.90;;;1.25;;
39896;SDS011;25567;48.276;14.242;2022-08-03T12:04:54;3.17;;;1.58;;
39896;SDS011;25567;48.276;14.242;2022-08-03T12:07:38;2.10;;;1.42;;
39896;SDS011;25567;48.276;14.242;2022-08-03T12:10:47;3.25;;;1.50;;
39896;SDS011;25567;48.276;14.242;2022-08-03T12:13:37;1.98;;;1.40;;
39896;SDS011;25567;48.276;14.242;2022-08-03T12:16:49;1.25;;;1.13;;
39896;SDS011;25567;48.276;14.242;2022-08-03T12:19:40;1.65;;;1.30;;
39896;SDS011;25567;48.276;14.242;2022-08-03T12:22:37;6.28;;;1.88;;
39896;SDS011;25567;48.276;14.242;2022-08-03T12:25:20;5.20;;;1.75;;
39896;SDS011;25567;48.276;14.242;2022-08-03T12:28:19;4.35;;;1.90;;
39896;SDS011;25567;48.276;14.242;2022-08-03T12:31:08;4.18;;;1.52;;
39896;SDS011;25567;48.276;14.242;2022-08-03T12:36:57;4.85;;;1.30;;
39896;SDS011;25567;48.276;14.242;2022-08-03T12:39:31;5.78;;;1.80;;
39896;SDS011;25567;48.276;14.242;2022-08-03T12:42:43;4.45;;;1.52;;
39896;SDS011;25567;48.276;14.242;2022-08-03T12:45:25;2.33;;;1.48;;
39896;SDS011;25567;48.276;14.242;2022-08-03T12:48:21;2.33;;;1.67;;
39896;SDS011;25567;48.276;14.242;2022-08-03T12:51:09;2.13;;;1.65;;
39896;SDS011;25567;48.276;14.242;2022-08-03T12:53:57;3.40;;;1.80;;
39896;SDS011;25567;48.276;14.242;2022-08-03T12:56:55;5.03;;;1.48;;
39896;SDS011;25567;48.276;14.242;2022-08-03T13:00:09;4.65;;;1.55;;
39896;SDS011;25567;48.276;14.242;2022-08-03T13:03:03;3.05;;;1.10;;
39896;SDS011;25567;48.276;14.242;2022-08-03T13:06:12;3.42;;;1.30;;
39896;SDS011;25567;48.276;14.242;2022-08-03T13:09:03;1.75;;;1.27;;
39896;SDS011;25567;48.276;14.242;2022-08-03T13:11:36;2.28;;;1.33;;
39896;SDS011;25567;48.276;14.242;2022-08-03T13:14:41;3.58;;;1.40;;
39896;SDS011;25567;48.276;14.242;2022-08-03T13:17:24;2.13;;;1.60;;
39896;SDS011;25567;48.276;14.242;2022-08-03T13:20:18;2.75;;;1.25;;
39896;SDS011;25567;48.276;14.242;2022-08-03T13:22:59;5.43;;;1.13;;
39896;SDS011;25567;48.276;14.242;2022-08-03T13:26:00;2.28;;;1.27;;
39896;SDS011;25567;48.276;14.242;2022-08-03T13:28:40;2.42;;;1.10;;
39896;SDS011;25567;48.276;14.242;2022-08-03T13:31:27;5.45;;;1.30;;
39896;SDS011;25567;48.276;14.242;2022-08-03T13:34:21;2.92;;;1.27;;
39896;SDS011;25567;48.276;14.242;2022-08-03T13:37:08;2.58;;;1.20;;
39896;SDS011;25567;48.276;14.242;2022-08-03T13:39:50;7.40;;;1.42;;
39896;SDS011;25567;48.276;14.242;2022-08-03T13:42:44;1.70;;;1.20;;
39896;SDS011;25567;48.276;14.242;2022-08-03T13:45:24;1.65;;;1.00;;
39896;SDS011;25567;48.276;14.242;2022-08-03T13:48:18;3.88;;;1.25;;
39896;SDS011;25567;48.276;14.242;2022-08-03T13:51:08;8.60;;;1.70;;
39896;SDS011;25567;48.276;14.242;2022-08-03T13:54:02;4.72;;;1.50;;
39896;SDS011;25567;48.276;14.242;2022-08-03T13:56:35;3.35;;;1.45;;
39896;SDS011;25567;48.276;14.242;2022-08-03T13:59:55;2.42;;;1.27;;
39896;SDS011;25567;48.276;14.242;2022-08-03T14:02:36;2.42;;;1.27;;
39896;SDS011;25567;48.276;14.242;2022-08-03T14:05:29;2.75;;;1.50;;
39896;SDS011;25567;48.276;14.242;2022-08-03T14:08:10;9.00;;;1.40;;
39896;SDS011;25567;48.276;14.242;2022-08-03T14:11:05;4.15;;;1.75;;
39896;SDS011;25567;48.276;14.242;2022-08-03T14:13:37;6.55;;;1.65;;
39896;SDS011;25567;48.276;14.242;2022-08-03T14:16:31;6.65;;;1.70;;
39896;SDS011;25567;48.276;14.242;2022-08-03T14:19:05;3.65;;;1.80;;
39896;SDS011;25567;48.276;14.242;2022-08-03T14:22:03;3.03;;;1.42;;
39896;SDS011;25567;48.276;14.242;2022-08-03T14:24:38;3.05;;;1.50;;
39896;SDS011;25567;48.276;14.242;2022-08-03T14:27:32;5.03;;;1.65;;
39896;SDS011;25567;48.276;14.242;2022-08-03T14:30:13;4.93;;;1.73;;
39896;SDS011;25567;48.276;14.242;2022-08-03T14:33:06;1.75;;;1.17;;
39896;SDS011;25567;48.276;14.242;2022-08-03T14:35:47;3.30;;;1.23;;
39896;SDS011;25567;48.276;14.242;2022-08-03T14:38:33;4.75;;;1.40;;
39896;SDS011;25567;48.276;14.242;2022-08-03T14:41:23;5.32;;;1.17;;
39896;SDS011;25567;48.276;14.242;2022-08-03T14:44:16;5.53;;;1.70;;
39896;SDS011;25567;48.276;14.242;2022-08-03T14:46:56;7.15;;;1.38;;
39896;SDS011;25567;48.276;14.242;2022-08-03T14:49:43;3.58;;;1.40;;
39896;SDS011;25567;48.276;14.242;2022-08-03T14:52:43;2.83;;;1.13;;
39896;SDS011;25567;48.276;14.242;2022-08-03T14:55:44;2.42;;;1.35;;
39896;SDS011;25567;48.276;14.242;2022-08-03T14:58:25;3.53;;;1.45;;
39896;SDS011;25567;48.276;14.242;2022-08-03T15:01:18;3.80;;;1.30;;
39896;SDS011;25567;48.276;14.242;2022-08-03T15:04:19;2.50;;;1.30;;
39896;SDS011;25567;48.276;14.242;2022-08-03T15:07:05;1.65;;;0.93;;
39896;SDS011;25567;48.276;14.242;2022-08-03T15:09:46;3.63;;;1.48;;
39896;SDS011;25567;48.276;14.242;2022-08-03T15:12:32;3.95;;;1.30;;
39896;SDS011;25567;48.276;14.242;2022-08-03T15:15:13;2.63;;;1.10;;
39896;SDS011;25567;48.276;14.242;2022-08-03T15:18:07;1.48;;;1.10;;
39896;SDS011;25567;48.276;14.242;2022-08-03T15:20:46;3.90;;;1.08;;
39896;SDS011;25567;48.276;14.242;2022-08-03T15:23:33;4.10;;;1.00;;
39896;SDS011;25567;48.276;14.242;2022-08-03T15:26:14;5.75;;;1.63;;
39896;SDS011;25567;48.276;14.242;2022-08-03T15:29:14;2.63;;;1.20;;
39896;SDS011;25567;48.276;14.242;2022-08-03T15:32:15;5.07;;;1.33;;
39896;SDS011;25567;48.276;14.242;2022-08-03T15:35:08;1.55;;;1.17;;
39896;SDS011;25567;48.276;14.242;2022-08-03T15:37:42;2.35;;;1.00;;
39896;SDS011;25567;48.276;14.242;2022-08-03T15:40:36;2.88;;;1.10;;
39896;SDS011;25567;48.276;14.242;2022-08-03T15:43:29;4.65;;;1.33;;
39896;SDS011;25567;48.276;14.242;2022-08-03T15:46:11;5.20;;;1.10;;
39896;SDS011;25567;48.276;14.242;2022-08-03T15:49:07;1.45;;;0.98;;
39896;SDS011;25567;48.276;14.242;2022-08-03T15:51:48;2.80;;;1.15;;
39896;SDS011;25567;48.276;14.242;2022-08-03T15:54:35;2.83;;;1.20;;
39896;SDS011;25567;48.276;14.242;2022-08-03T15:57:15;3.00;;;1.20;;
39896;SDS011;25567;48.276;14.242;2022-08-03T16:00:09;2.83;;;0.95;;
39896;SDS011;25567;48.276;14.242;2022-08-03T16:02:43;1.40;;;1.00;;
39896;SDS011;25567;48.276;14.242;2022-08-03T16:05:37;4.35;;;1.50;;
39896;SDS011;25567;48.276;14.242;2022-08-03T16:08:17;1.80;;;1.20;;
39896;SDS011;25567;48.276;14.242;2022-08-03T16:11:10;2.22;;;1.48;;
39896;SDS011;25567;48.276;14.242;2022-08-03T16:13:51;1.45;;;1.35;;
39896;SDS011;25567;48.276;14.242;2022-08-03T16:17:08;3.38;;;1.50;;
39896;SDS011;25567;48.276;14.242;2022-08-03T16:19:41;2.45;;;1.42;;
39896;SDS011;25567;48.276;14.242;2022-08-03T16:22:40;3.92;;;1.55;;
39896;SDS011;25567;48.276;14.242;2022-08-03T16:25:24;1.30;;;1.20;;
39896;SDS011;25567;48.276;14.242;2022-08-03T16:28:18;2.30;;;1.52;;
39896;SDS011;25567;48.276;14.242;2022-08-03T16:30:58;12.25;;;1.52;;
39896;SDS011;25567;48.276;14.242;2022-08-03T16:33:52;3.05;;;1.65;;
39896;SDS011;25567;48.276;14.242;2022-08-03T16:36:33;1.75;;;1.40;;
39896;SDS011;25567;48.276;14.242;2022-08-03T16:39:20;5.82;;;1.63;;
39896;SDS011;25567;48.276;14.242;2022-08-03T16:42:07;2.88;;;1.55;;
39896;SDS011;25567;48.276;14.242;2022-08-03T16:44:47;1.85;;;1.35;;
39896;SDS011;25567;48.276;14.242;2022-08-03T16:47:34;4.93;;;1.50;;
39896;SDS011;25567;48.276;14.242;2022-08-03T16:50:07;5.90;;;1.52;;
39896;SDS011;25567;48.276;14.242;2022-08-03T16:53:08;4.15;;;1.77;;
39896;SDS011;25567;48.276;14.242;2022-08-03T16:55:49;3.00;;;1.88;;
39896;SDS011;25567;48.276;14.242;2022-08-03T16:58:49;2.17;;;1.60;;
39896;SDS011;25567;48.276;14.242;2022-08-03T17:01:29;2.90;;;1.30;;
39896;SDS011;25567;48.276;14.242;2022-08-03T17:04:17;5.07;;;1.58;;
39896;SDS011;25567;48.276;14.242;2022-08-03T17:06:57;3.20;;;1.33;;